createdAt,value
2023-01-27T00:01:59.355Z,26.33
2023-01-27T00:04:44.656Z,25.83
2023-01-27T00:07:30.139Z,28.40
2023-01-27T00:10:18.486Z,29.30
2023-01-27T00:13:22.600Z,28.23
2023-01-27T00:16:08.427Z,29.35
2023-01-27T00:18:54.867Z,16.98
2023-01-27T00:22:02.017Z,18.55
2023-01-27T00:24:48.012Z,17.25
2023-01-27T00:27:36.311Z,13.25
2023-01-27T00:30:22.157Z,22.80
2023-01-27T00:33:27.614Z,21.80
2023-01-27T00:36:13.031Z,26.67
2023-01-27T00:38:58.359Z,22.02
2023-01-27T00:41:44.041Z,19.52
2023-01-27T00:44:33.280Z,27.13
2023-01-27T00:47:21.908Z,15.70
2023-01-27T00:50:09.926Z,13.93
2023-01-27T00:52:55.491Z,10.27
2023-01-27T00:55:41.919Z,17.88
2023-01-27T00:58:28.747Z,18.95
2023-01-27T01:01:16.200Z,23.98
2023-01-27T01:04:01.974Z,24.02
2023-01-27T01:06:47.172Z,18.13
2023-01-27T01:09:33.715Z,17.75
2023-01-27T01:12:18.920Z,15.13
2023-01-27T01:15:05.076Z,20.17
2023-01-27T01:17:50.748Z,20.30
2023-01-27T01:20:38.392Z,17.70
2023-01-27T01:23:23.679Z,23.05
2023-01-27T01:26:11.496Z,15.05
2023-01-27T01:29:02.965Z,11.57
2023-01-27T01:31:51.532Z,20.17
2023-01-27T01:34:41.105Z,17.25
2023-01-27T01:37:26.429Z,16.40
2023-01-27T01:40:12.658Z,13.50
2023-01-27T01:43:06.964Z,9.23
2023-01-27T01:45:56.797Z,17.23
2023-01-27T01:48:54.651Z,12.93
2023-01-27T01:51:46.350Z,10.20
2023-01-27T01:54:40.777Z,15.30
2023-01-27T01:57:31.854Z,9.45
2023-01-27T02:00:18.921Z,16.15
2023-01-27T02:03:04.940Z,18.60
2023-01-27T02:05:51.761Z,16.88
2023-01-27T02:08:42.527Z,16.58
2023-01-27T02:11:28.657Z,11.85
2023-01-27T02:14:16.403Z,18.77
2023-01-27T02:17:03.236Z,14.15
2023-01-27T02:20:05.224Z,16.50
2023-01-27T02:23:23.552Z,9.65
2023-01-27T02:26:22.849Z,14.77
2023-01-27T02:29:15.849Z,13.15
2023-01-27T02:32:04.234Z,11.02
2023-01-27T02:34:56.980Z,11.77
2023-01-27T02:37:43.092Z,14.35
2023-01-27T02:40:29.642Z,13.05
2023-01-27T02:43:15.228Z,13.73
2023-01-27T02:46:00.874Z,10.60
2023-01-27T02:48:48.838Z,14.25
2023-01-27T02:51:34.562Z,11.82
2023-01-27T02:54:26.258Z,13.82
2023-01-27T02:57:11.779Z,10.15
2023-01-27T03:00:13.264Z,11.55
2023-01-27T03:02:58.492Z,12.80
2023-01-27T03:05:47.707Z,12.13
2023-01-27T03:08:33.143Z,18.02
2023-01-27T03:11:36.950Z,13.00
2023-01-27T03:14:41.698Z,16.30
2023-01-27T03:17:46.026Z,16.85
2023-01-27T03:20:31.208Z,16.63
2023-01-27T03:23:19.337Z,9.85
2023-01-27T03:26:09.833Z,15.32
2023-01-27T03:29:16.464Z,20.20
2023-01-27T03:32:03.669Z,17.20
2023-01-27T03:34:50.065Z,16.33
2023-01-27T03:38:04.593Z,18.67
2023-01-27T03:41:08.599Z,22.30
2023-01-27T03:44:14.524Z,16.42
2023-01-27T03:47:09.005Z,18.95
2023-01-27T03:49:54.315Z,20.05
2023-01-27T03:52:40.465Z,18.65
2023-01-27T03:55:25.719Z,18.90
2023-01-27T03:58:22.674Z,16.45
2023-01-27T04:01:14.986Z,17.60
2023-01-27T04:04:18.664Z,19.45
2023-01-27T04:07:04.228Z,19.60
2023-01-27T04:09:51.639Z,18.50
2023-01-27T04:12:36.945Z,22.83
2023-01-27T04:15:22.812Z,21.23
2023-01-27T04:18:08.540Z,20.27
2023-01-27T04:20:54.093Z,20.10
2023-01-27T04:23:39.494Z,19.48
2023-01-27T04:26:25.947Z,16.50
2023-01-27T04:29:13.641Z,19.17
2023-01-27T04:32:01.579Z,16.50
2023-01-27T04:34:47.708Z,19.20
2023-01-27T04:37:33.928Z,15.57
2023-01-27T04:40:22.217Z,16.75
2023-01-27T04:43:07.662Z,14.43
2023-01-27T04:45:54.196Z,16.13
2023-01-27T04:48:44.540Z,10.02
2023-01-27T04:51:30.381Z,8.82
2023-01-27T04:54:15.780Z,7.70
2023-01-27T04:57:03.624Z,11.63
2023-01-27T04:59:50.110Z,6.93
2023-01-27T05:02:35.379Z,6.45
2023-01-27T05:05:20.779Z,6.85
2023-01-27T05:08:09.533Z,7.00
2023-01-27T05:10:55.133Z,5.05
2023-01-27T05:13:41.091Z,5.05
2023-01-27T05:16:27.760Z,7.30
2023-01-27T05:19:13.105Z,5.93
2023-01-27T05:21:58.737Z,6.95
2023-01-27T05:24:46.628Z,5.05
2023-01-27T05:27:31.833Z,7.55
2023-01-27T05:30:17.644Z,5.65
2023-01-27T05:33:03.123Z,4.38
2023-01-27T05:35:48.703Z,5.45
2023-01-27T05:38:34.832Z,7.00
2023-01-27T05:41:21.004Z,6.22
2023-01-27T05:44:10.264Z,4.85
2023-01-27T05:46:55.795Z,4.40
2023-01-27T05:49:41.031Z,4.82
2023-01-27T05:52:26.645Z,7.18
2023-01-27T05:55:12.204Z,7.25
2023-01-27T05:57:57.900Z,6.60
2023-01-27T06:00:44.463Z,6.55
2023-01-27T06:03:29.890Z,6.30
2023-01-27T06:06:23.822Z,6.65
2023-01-27T06:09:21.756Z,4.53
2023-01-27T06:12:07.109Z,5.18
2023-01-27T06:14:53.505Z,6.15
2023-01-27T06:17:38.774Z,5.13
2023-01-27T06:20:24.269Z,4.30
2023-01-27T06:23:11.305Z,4.93
2023-01-27T06:26:01.139Z,4.90
2023-01-27T06:28:52.574Z,3.65
2023-01-27T06:31:38.518Z,7.13
2023-01-27T06:34:24.008Z,6.95
2023-01-27T06:37:09.456Z,5.25
2023-01-27T06:39:55.037Z,5.93
2023-01-27T06:42:44.607Z,4.47
2023-01-27T06:45:29.965Z,3.88
2023-01-27T06:48:16.646Z,5.25
2023-01-27T06:51:02.248Z,5.30
2023-01-27T06:53:50.864Z,3.60
2023-01-27T06:56:36.255Z,3.63
2023-01-27T06:59:21.918Z,2.88
2023-01-27T07:02:07.289Z,2.60
2023-01-27T07:04:52.689Z,3.67
2023-01-27T07:07:41.246Z,3.22
2023-01-27T07:10:27.683Z,5.50
2023-01-27T07:13:14.306Z,3.92
2023-01-27T07:16:00.415Z,4.28
2023-01-27T07:18:45.891Z,6.82
2023-01-27T07:21:34.316Z,5.50
2023-01-27T07:24:19.989Z,4.13
2023-01-27T07:27:05.539Z,4.15
2023-01-27T07:29:51.525Z,8.68
2023-01-27T07:32:37.114Z,8.05
2023-01-27T07:35:23.479Z,6.57
2023-01-27T07:38:09.148Z,8.63
2023-01-27T07:40:54.867Z,5.30
2023-01-27T07:43:40.296Z,5.15
2023-01-27T07:46:26.911Z,4.63
2023-01-27T07:49:12.513Z,3.72
2023-01-27T07:51:58.084Z,10.38
2023-01-27T07:54:43.994Z,6.30
2023-01-27T07:57:29.502Z,6.57
2023-01-27T08:00:16.165Z,4.15
2023-01-27T08:03:02.609Z,4.65
2023-01-27T08:05:51.331Z,3.92
2023-01-27T08:08:38.239Z,5.35
2023-01-27T08:11:23.624Z,4.07
2023-01-27T08:14:09.071Z,5.32
2023-01-27T08:16:54.973Z,6.30
2023-01-27T08:19:40.040Z,6.38
2023-01-27T08:22:25.725Z,2.65
2023-01-27T08:25:11.809Z,5.40
2023-01-27T08:27:57.090Z,6.13
2023-01-27T08:30:42.816Z,3.45
2023-01-27T08:33:27.933Z,7.28
2023-01-27T08:36:17.517Z,8.02
2023-01-27T08:39:03.273Z,5.43
2023-01-27T08:41:56.680Z,6.13
2023-01-27T08:44:42.273Z,10.90
2023-01-27T08:47:27.524Z,5.43
2023-01-27T08:50:13.548Z,7.05
2023-01-27T08:52:59.209Z,4.38
2023-01-27T08:55:47.227Z,6.10
2023-01-27T08:58:33.401Z,5.47
2023-01-27T09:01:23.491Z,4.18
2023-01-27T09:04:09.360Z,5.15
2023-01-27T09:06:57.766Z,3.05
2023-01-27T09:09:48.669Z,4.22
2023-01-27T09:12:34.334Z,4.25
2023-01-27T09:15:19.721Z,4.13
2023-01-27T09:18:06.710Z,2.97
2023-01-27T09:20:52.516Z,4.95
2023-01-27T09:23:37.931Z,3.65
2023-01-27T09:26:24.805Z,3.50
2023-01-27T09:29:11.880Z,5.00
2023-01-27T09:31:57.487Z,4.35
2023-01-27T09:34:47.057Z,3.30
2023-01-27T09:37:39.657Z,7.05
2023-01-27T09:40:55.694Z,5.20
2023-01-27T09:43:49.192Z,3.75
2023-01-27T09:47:00.249Z,2.70
2023-01-27T09:50:21.244Z,5.78
2023-01-27T09:53:34.690Z,6.78
2023-01-27T09:56:56.346Z,3.75
2023-01-27T09:59:59.424Z,5.38
2023-01-27T10:03:27.543Z,4.57
2023-01-27T10:06:44.217Z,5.30
2023-01-27T10:10:08.215Z,4.10
2023-01-27T10:13:14.550Z,5.50
2023-01-27T10:16:29.123Z,4.47
2023-01-27T10:19:43.019Z,2.55
2023-01-27T10:23:03.138Z,2.55
2023-01-27T10:26:16.415Z,2.80
2023-01-27T10:29:26.850Z,2.47
2023-01-27T10:32:56.671Z,3.67
2023-01-27T10:35:51.802Z,2.47
2023-01-27T10:39:12.661Z,2.57
2023-01-27T10:42:31.648Z,1.40
2023-01-27T10:45:42.775Z,2.00
2023-01-27T10:48:43.825Z,1.80
2023-01-27T10:51:34.672Z,4.00
2023-01-27T10:54:34.222Z,1.80
2023-01-27T10:57:28.305Z,3.10
2023-01-27T11:03:50.126Z,2.80
2023-01-27T11:06:39.270Z,1.67
2023-01-27T11:09:35.676Z,3.13
2023-01-27T11:12:31.641Z,4.78
2023-01-27T11:15:35.992Z,4.13
2023-01-27T11:18:25.484Z,4.60
2023-01-27T11:21:17.493Z,3.97
2023-01-27T11:24:30.828Z,3.63
2023-01-27T11:27:36.149Z,4.07
2023-01-27T11:30:34.170Z,2.20
2023-01-27T11:33:27.611Z,3.28
2023-01-27T11:36:21.507Z,6.20
2023-01-27T11:39:10.542Z,4.63
2023-01-27T11:41:56.280Z,1.95
2023-01-27T11:44:43.540Z,2.15
2023-01-27T11:47:41.521Z,4.18
2023-01-27T11:50:31.681Z,2.47
2023-01-27T11:53:17.524Z,1.88
2023-01-27T11:56:08.445Z,2.28
2023-01-27T11:59:09.974Z,2.90
2023-01-27T12:02:02.651Z,4.82
2023-01-27T12:04:55.685Z,3.72
2023-01-27T12:07:56.049Z,3.58
2023-01-27T12:10:44.808Z,2.78
2023-01-27T12:13:53.089Z,4.13
2023-01-27T12:16:52.046Z,2.35
2023-01-27T12:19:42.405Z,5.40
2023-01-27T12:22:33.429Z,3.30
2023-01-27T12:25:25.352Z,3.53
2023-01-27T12:28:28.808Z,3.58
2023-01-27T12:31:31.333Z,2.08
2023-01-27T12:34:37.185Z,4.95
2023-01-27T12:37:27.626Z,3.42
2023-01-27T12:40:25.078Z,4.10
2023-01-27T12:43:20.002Z,5.38
2023-01-27T12:46:13.116Z,3.25
2023-01-27T12:49:22.598Z,3.42
2023-01-27T12:52:21.677Z,5.07
2023-01-27T12:55:37.491Z,3.70
2023-01-27T12:58:47.411Z,7.25
2023-01-27T13:01:37.570Z,4.90
2023-01-27T13:04:26.959Z,4.30
2023-01-27T13:07:17.492Z,3.25
2023-01-27T13:10:09.264Z,5.57
2023-01-27T13:12:57.430Z,8.07
2023-01-27T13:15:53.394Z,6.53
2023-01-27T13:18:39.693Z,6.47
2023-01-27T13:21:35.711Z,2.88
2023-01-27T13:24:33.530Z,2.72
2023-01-27T13:27:22.071Z,5.70
2023-01-27T13:30:27.468Z,4.15
2023-01-27T13:33:44.093Z,4.10
2023-01-27T13:36:53.402Z,4.43
2023-01-27T13:40:17.135Z,7.88
2023-01-27T13:43:20.188Z,4.07
2023-01-27T13:46:24.429Z,5.93
2023-01-27T13:49:39.371Z,3.65
2023-01-27T13:52:25.574Z,7.05
2023-01-27T13:55:15.005Z,7.15
2023-01-27T13:58:11.791Z,3.42
2023-01-27T14:01:21.313Z,4.15
2023-01-27T14:08:13.132Z,5.28
2023-01-27T14:11:09.329Z,3.50
2023-01-27T14:14:29.104Z,3.83
2023-01-27T14:17:26.562Z,4.18
2023-01-27T14:20:24.620Z,3.90
2023-01-27T14:23:37.738Z,2.80
2023-01-27T14:26:55.722Z,5.55
2023-01-27T14:30:02.828Z,3.90
2023-01-27T14:33:02.205Z,3.63
2023-01-27T14:36:21.210Z,4.10
2023-01-27T14:39:24.830Z,4.63
2023-01-27T14:42:22.872Z,5.03
2023-01-27T14:45:26.495Z,5.30
2023-01-27T14:48:25.814Z,5.13
2023-01-27T14:51:29.772Z,3.13
2023-01-27T14:54:44.227Z,3.30
2023-01-27T14:57:49.280Z,2.72
2023-01-27T15:01:05.664Z,2.10
2023-01-27T15:04:07.574Z,2.95
2023-01-27T15:07:06.974Z,5.78
2023-01-27T15:10:22.939Z,4.13
2023-01-27T15:13:29.657Z,6.65
2023-01-27T15:16:29.013Z,3.58
2023-01-27T15:19:18.897Z,5.03
2023-01-27T15:22:40.116Z,3.58
2023-01-27T15:25:34.338Z,4.35
2023-01-27T15:28:24.868Z,4.30
2023-01-27T15:31:17.050Z,3.97
2023-01-27T15:34:23.337Z,3.38
2023-01-27T15:37:19.619Z,5.53
2023-01-27T15:40:05.615Z,3.58
2023-01-27T15:42:52.443Z,4.22
2023-01-27T15:45:39.068Z,5.72
2023-01-27T15:48:34.463Z,3.83
2023-01-27T15:54:15.770Z,5.45
2023-01-27T15:57:06.115Z,5.72
2023-01-27T15:59:59.226Z,4.30
2023-01-27T16:03:02.525Z,4.90
2023-01-27T16:06:01.246Z,5.72
2023-01-27T16:08:59.028Z,4.25
2023-01-27T16:11:59.744Z,5.30
2023-01-27T16:14:46.318Z,4.03
2023-01-27T16:17:33.255Z,4.18
2023-01-27T16:20:31.554Z,4.68
2023-01-27T16:23:23.235Z,7.13
2023-01-27T16:26:33.020Z,4.90
2023-01-27T16:29:26.928Z,6.40
2023-01-27T16:32:17.364Z,5.38
2023-01-27T16:35:06.861Z,4.63
2023-01-27T16:38:14.930Z,4.68
2023-01-27T16:41:04.016Z,4.25
2023-01-27T16:44:05.277Z,5.53
2023-01-27T16:47:16.754Z,6.20
2023-01-27T16:50:02.627Z,4.32
2023-01-27T16:52:47.818Z,4.97
2023-01-27T16:55:33.738Z,5.40
2023-01-27T16:58:21.463Z,4.32
2023-01-27T17:01:07.233Z,5.50
2023-01-27T17:04:04.836Z,5.68
2023-01-27T17:07:06.720Z,6.40
2023-01-27T17:10:04.491Z,4.40
2023-01-27T17:12:50.680Z,5.68
2023-01-27T17:15:38.635Z,4.50
2023-01-27T17:18:25.915Z,4.97
2023-01-27T17:21:11.443Z,6.60
2023-01-27T17:24:04.536Z,7.00
2023-01-27T17:27:05.461Z,5.13
2023-01-27T17:29:56.926Z,7.28
2023-01-27T17:32:45.912Z,6.50
2023-01-27T17:35:35.486Z,5.68
2023-01-27T17:38:26.274Z,6.43
2023-01-27T17:41:38.436Z,5.80
2023-01-27T17:44:23.794Z,5.47
2023-01-27T17:47:14.847Z,4.85
2023-01-27T17:50:00.147Z,5.10
2023-01-27T17:52:52.532Z,5.55
2023-01-27T17:55:39.448Z,5.13
2023-01-27T17:58:27.601Z,4.30
2023-01-27T18:01:14.965Z,4.88
2023-01-27T18:04:02.785Z,5.88
2023-01-27T18:06:50.519Z,5.10
2023-01-27T18:09:47.944Z,5.53
2023-01-27T18:12:37.489Z,5.00
2023-01-27T18:15:47.156Z,5.32
2023-01-27T18:18:34.851Z,9.23
2023-01-27T18:21:25.618Z,5.68
2023-01-27T18:24:21.867Z,4.90
2023-01-27T18:27:43.035Z,5.00
2023-01-27T18:30:28.308Z,6.07
2023-01-27T18:33:14.396Z,4.95
2023-01-27T18:36:06.972Z,4.65
2023-01-27T18:38:53.166Z,6.07
2023-01-27T18:41:47.052Z,5.15
2023-01-27T18:44:35.625Z,7.80
2023-01-27T18:47:33.804Z,4.80
2023-01-27T18:50:22.401Z,4.97
2023-01-27T18:53:19.194Z,8.70
2023-01-27T18:56:04.650Z,8.43
2023-01-27T18:58:50.076Z,15.90
2023-01-27T19:01:36.194Z,8.82
2023-01-27T19:04:23.013Z,6.90
2023-01-27T19:07:16.755Z,10.65
2023-01-27T19:10:11.727Z,8.68
2023-01-27T19:12:59.039Z,5.28
2023-01-27T19:15:54.518Z,6.85
2023-01-27T19:21:25.537Z,6.32
2023-01-27T19:24:11.380Z,5.97
2023-01-27T19:26:56.668Z,6.22
2023-01-27T19:29:42.479Z,6.50
2023-01-27T19:32:27.915Z,5.82
2023-01-27T19:35:13.742Z,6.03
2023-01-27T19:38:02.465Z,8.00
2023-01-27T19:40:49.615Z,6.80
2023-01-27T19:43:35.245Z,8.18
2023-01-27T19:46:22.820Z,7.25
2023-01-27T19:49:19.395Z,9.05
2023-01-27T19:52:08.887Z,8.15
2023-01-27T19:54:58.865Z,8.15
2023-01-27T19:57:46.151Z,7.10
2023-01-27T20:00:35.296Z,7.45
2023-01-27T20:03:21.275Z,9.50
2023-01-27T20:06:21.368Z,8.30
2023-01-27T20:09:06.907Z,8.60
2023-01-27T20:11:52.462Z,10.38
2023-01-27T20:14:41.121Z,8.77
2023-01-27T20:17:26.489Z,7.95
2023-01-27T20:20:13.954Z,7.82
2023-01-27T20:23:03.447Z,8.25
2023-01-27T20:25:49.250Z,8.18
2023-01-27T20:28:35.124Z,8.38
2023-01-27T20:31:24.805Z,8.85
2023-01-27T20:34:16.966Z,10.90
2023-01-27T20:37:02.566Z,9.35
2023-01-27T20:39:48.189Z,8.55
2023-01-27T20:42:33.788Z,7.15
2023-01-27T20:45:20.431Z,8.80
2023-01-27T20:48:05.927Z,7.15
2023-01-27T20:50:58.679Z,7.22
2023-01-27T20:53:47.504Z,8.60
2023-01-27T20:56:33.099Z,10.38
2023-01-27T20:59:18.795Z,9.63
2023-01-27T21:02:04.411Z,11.25
2023-01-27T21:04:49.761Z,11.30
2023-01-27T21:07:35.201Z,10.65
2023-01-27T21:10:22.462Z,8.95
2023-01-27T21:13:20.268Z,9.63
2023-01-27T21:16:05.849Z,9.55
2023-01-27T21:18:51.383Z,12.75
2023-01-27T21:21:36.868Z,11.10
2023-01-27T21:24:24.074Z,15.35
2023-01-27T21:27:09.471Z,10.70
2023-01-27T21:29:58.197Z,14.40
2023-01-27T21:32:50.214Z,12.40
2023-01-27T21:35:36.056Z,14.77
2023-01-27T21:38:21.443Z,12.73
2023-01-27T21:41:13.306Z,11.05
2023-01-27T21:44:19.220Z,10.75
2023-01-27T21:47:07.889Z,12.00
2023-01-27T21:50:03.156Z,11.40
2023-01-27T21:52:53.311Z,14.90
2023-01-27T21:55:38.508Z,11.90
2023-01-27T21:58:27.141Z,12.38
2023-01-27T22:01:12.800Z,13.05
2023-01-27T22:03:58.462Z,12.52
2023-01-27T22:06:44.168Z,10.43
2023-01-27T22:09:32.603Z,14.13
2023-01-27T22:12:18.451Z,13.13
2023-01-27T22:15:04.090Z,13.80
2023-01-27T22:17:50.323Z,11.80
2023-01-27T22:20:35.976Z,12.73
2023-01-27T22:23:21.834Z,10.55
2023-01-27T22:26:09.165Z,10.70
2023-01-27T22:28:54.446Z,10.77
2023-01-27T22:31:41.904Z,10.07
2023-01-27T22:34:27.506Z,9.00
2023-01-27T22:37:17.669Z,10.23
2023-01-27T22:40:04.621Z,11.23
2023-01-27T22:42:50.647Z,11.20
2023-01-27T22:45:39.134Z,12.38
2023-01-27T22:48:24.648Z,13.10
2023-01-27T22:51:10.137Z,12.57
2023-01-27T22:53:55.965Z,12.48
2023-01-27T22:56:44.086Z,12.00
2023-01-27T22:59:29.436Z,11.80
2023-01-27T23:02:15.119Z,13.40
2023-01-27T23:05:03.600Z,12.13
2023-01-27T23:07:49.224Z,13.68
2023-01-27T23:10:35.268Z,12.95
2023-01-27T23:13:20.701Z,13.60
2023-01-27T23:16:06.470Z,11.63
2023-01-27T23:18:53.217Z,12.25
2023-01-27T23:21:38.813Z,12.43
2023-01-27T23:24:27.952Z,13.35
2023-01-27T23:27:13.603Z,14.18
2023-01-27T23:29:59.159Z,12.77
2023-01-27T23:32:45.933Z,11.95
2023-01-27T23:35:31.172Z,13.52
2023-01-27T23:38:31.652Z,12.63
2023-01-27T23:41:22.960Z,12.80
2023-01-27T23:44:11.356Z,14.73
2023-01-27T23:47:00.444Z,10.70
2023-01-27T23:49:46.547Z,10.75
2023-01-27T23:52:34.902Z,11.60
2023-01-27T23:55:20.152Z,10.05
2023-01-27T23:58:06.281Z,12.00
